sensor_id;sensor_type;location;lat;lon;timestamp;P1;durP1;ratioP1;P2;durP2;ratioP2
12745;SDS011;6437;53.686;10.030;2023-04-19T00:00:53;13.73;;;4.22;;
12745;SDS011;6437;53.686;10.030;2023-04-19T00:02:58;12.70;;;3.63;;
12745;SDS011;6437;53.686;10.030;2023-04-19T00:04:59;8.07;;;3.45;;
12745;SDS011;6437;53.686;10.030;2023-04-19T00:07:01;9.30;;;4.22;;
12745;SDS011;6437;53.686;10.030;2023-04-19T00:09:03;15.05;;;5.00;;
12745;SDS011;6437;53.686;10.030;2023-04-19T00:11:06;10.68;;;4.40;;
12745;SDS011;6437;53.686;10.030;2023-04-19T00:13:08;9.45;;;3.53;;
12745;SDS011;6437;53.686;10.030;2023-04-19T00:17:12;7.70;;;2.67;;
12745;SDS011;6437;53.686;10.030;2023-04-19T00:19:15;10.77;;;3.03;;
12745;SDS011;6437;53.686;10.030;2023-04-19T00:21:20;9.18;;;1.85;;
12745;SDS011;6437;53.686;10.030;2023-04-19T00:23:22;9.57;;;3.20;;
12745;SDS011;6437;53.686;10.030;2023-04-19T00:25:24;7.68;;;2.92;;
12745;SDS011;6437;53.686;10.030;2023-04-19T00:27:27;6.00;;;2.70;;
12745;SDS011;6437;53.686;10.030;2023-04-19T00:29:29;9.38;;;2.50;;
12745;SDS011;6437;53.686;10.030;2023-04-19T00:31:31;10.18;;;3.33;;
12745;SDS011;6437;53.686;10.030;2023-04-19T00:33:32;6.22;;;2.30;;
12745;SDS011;6437;53.686;10.030;2023-04-19T00:35:36;10.52;;;2.55;;
12745;SDS011;6437;53.686;10.030;2023-04-19T00:37:37;8.02;;;1.95;;
12745;SDS011;6437;53.686;10.030;2023-04-19T00:39:39;7.70;;;2.53;;
12745;SDS011;6437;53.686;10.030;2023-04-19T00:41:41;9.40;;;2.65;;
12745;SDS011;6437;53.686;10.030;2023-04-19T00:43:43;13.55;;;2.53;;
12745;SDS011;6437;53.686;10.030;2023-04-19T00:45:45;10.18;;;3.03;;
12745;SDS011;6437;53.686;10.030;2023-04-19T00:47:49;6.00;;;1.88;;
12745;SDS011;6437;53.686;10.030;2023-04-19T00:49:51;9.95;;;2.47;;
12745;SDS011;6437;53.686;10.030;2023-04-19T00:51:55;9.00;;;2.72;;
12745;SDS011;6437;53.686;10.030;2023-04-19T00:53:56;10.10;;;2.17;;
12745;SDS011;6437;53.686;10.030;2023-04-19T00:55:58;13.27;;;3.40;;
12745;SDS011;6437;53.686;10.030;2023-04-19T00:58:02;9.80;;;2.42;;
12745;SDS011;6437;53.686;10.030;2023-04-19T01:00:05;12.30;;;2.45;;
12745;SDS011;6437;53.686;10.030;2023-04-19T01:02:08;7.80;;;2.38;;
12745;SDS011;6437;53.686;10.030;2023-04-19T01:04:10;6.90;;;2.03;;
12745;SDS011;6437;53.686;10.030;2023-04-19T01:06:12;11.27;;;2.05;;
12745;SDS011;6437;53.686;10.030;2023-04-19T01:08:16;9.98;;;2.13;;
12745;SDS011;6437;53.686;10.030;2023-04-19T01:10:20;7.38;;;1.65;;
12745;SDS011;6437;53.686;10.030;2023-04-19T01:12:22;8.70;;;2.50;;
12745;SDS011;6437;53.686;10.030;2023-04-19T01:14:24;10.15;;;2.30;;
12745;SDS011;6437;53.686;10.030;2023-04-19T01:16:26;4.50;;;1.83;;
12745;SDS011;6437;53.686;10.030;2023-04-19T01:18:28;7.65;;;2.03;;
12745;SDS011;6437;53.686;10.030;2023-04-19T01:20:36;7.40;;;1.65;;
12745;SDS011;6437;53.686;10.030;2023-04-19T01:22:39;8.88;;;1.10;;
12745;SDS011;6437;53.686;10.030;2023-04-19T01:24:41;6.03;;;1.45;;
12745;SDS011;6437;53.686;10.030;2023-04-19T01:26:42;2.88;;;1.13;;
12745;SDS011;6437;53.686;10.030;2023-04-19T01:28:44;5.68;;;1.45;;
12745;SDS011;6437;53.686;10.030;2023-04-19T01:30:46;8.77;;;1.73;;
12745;SDS011;6437;53.686;10.030;2023-04-19T01:32:50;10.75;;;1.85;;
12745;SDS011;6437;53.686;10.030;2023-04-19T01:34:51;6.07;;;1.20;;
12745;SDS011;6437;53.686;10.030;2023-04-19T01:36:53;6.25;;;1.20;;
12745;SDS011;6437;53.686;10.030;2023-04-19T01:38:56;6.43;;;1.90;;
12745;SDS011;6437;53.686;10.030;2023-04-19T01:40:58;4.47;;;1.17;;
12745;SDS011;6437;53.686;10.030;2023-04-19T01:43:00;5.60;;;1.73;;
12745;SDS011;6437;53.686;10.030;2023-04-19T01:45:01;3.90;;;1.02;;
12745;SDS011;6437;53.686;10.030;2023-04-19T01:49:05;5.32;;;1.50;;
12745;SDS011;6437;53.686;10.030;2023-04-19T01:51:07;6.25;;;1.55;;
12745;SDS011;6437;53.686;10.030;2023-04-19T01:53:09;10.88;;;2.08;;
12745;SDS011;6437;53.686;10.030;2023-04-19T01:55:12;17.35;;;1.80;;
12745;SDS011;6437;53.686;10.030;2023-04-19T01:57:13;10.95;;;1.90;;
12745;SDS011;6437;53.686;10.030;2023-04-19T01:59:18;5.70;;;2.47;;
12745;SDS011;6437;53.686;10.030;2023-04-19T02:01:20;5.72;;;1.17;;
12745;SDS011;6437;53.686;10.030;2023-04-19T02:03:22;6.18;;;1.48;;
12745;SDS011;6437;53.686;10.030;2023-04-19T02:05:24;5.43;;;1.42;;
12745;SDS011;6437;53.686;10.030;2023-04-19T02:07:25;3.85;;;1.65;;
12745;SDS011;6437;53.686;10.030;2023-04-19T02:09:27;8.52;;;1.52;;
12745;SDS011;6437;53.686;10.030;2023-04-19T02:11:30;7.07;;;1.70;;
12745;SDS011;6437;53.686;10.030;2023-04-19T02:13:32;8.23;;;1.40;;
12745;SDS011;6437;53.686;10.030;2023-04-19T02:15:35;11.32;;;2.25;;
12745;SDS011;6437;53.686;10.030;2023-04-19T02:17:37;8.20;;;1.60;;
12745;SDS011;6437;53.686;10.030;2023-04-19T02:21:41;14.18;;;2.38;;
12745;SDS011;6437;53.686;10.030;2023-04-19T02:23:42;8.93;;;1.73;;
12745;SDS011;6437;53.686;10.030;2023-04-19T02:25:44;10.88;;;1.75;;
12745;SDS011;6437;53.686;10.030;2023-04-19T02:27:47;11.40;;;1.27;;
12745;SDS011;6437;53.686;10.030;2023-04-19T02:29:49;9.35;;;1.63;;
12745;SDS011;6437;53.686;10.030;2023-04-19T02:31:51;3.67;;;1.70;;
12745;SDS011;6437;53.686;10.030;2023-04-19T02:33:53;5.53;;;1.92;;
12745;SDS011;6437;53.686;10.030;2023-04-19T02:35:55;9.45;;;2.83;;
12745;SDS011;6437;53.686;10.030;2023-04-19T02:37:57;4.03;;;1.45;;
12745;SDS011;6437;53.686;10.030;2023-04-19T02:40:00;5.13;;;1.80;;
12745;SDS011;6437;53.686;10.030;2023-04-19T02:42:04;8.10;;;1.48;;
12745;SDS011;6437;53.686;10.030;2023-04-19T02:44:07;5.13;;;1.17;;
12745;SDS011;6437;53.686;10.030;2023-04-19T02:46:09;4.82;;;1.40;;
12745;SDS011;6437;53.686;10.030;2023-04-19T02:48:10;8.15;;;3.15;;
12745;SDS011;6437;53.686;10.030;2023-04-19T02:50:14;12.57;;;4.45;;
12745;SDS011;6437;53.686;10.030;2023-04-19T02:52:16;8.23;;;3.50;;
12745;SDS011;6437;53.686;10.030;2023-04-19T02:54:20;10.30;;;2.95;;
12745;SDS011;6437;53.686;10.030;2023-04-19T02:56:22;11.68;;;2.65;;
12745;SDS011;6437;53.686;10.030;2023-04-19T02:58:25;6.07;;;2.42;;
12745;SDS011;6437;53.686;10.030;2023-04-19T03:00:28;6.75;;;2.15;;
12745;SDS011;6437;53.686;10.030;2023-04-19T03:02:30;7.93;;;1.48;;
12745;SDS011;6437;53.686;10.030;2023-04-19T03:04:32;4.22;;;1.50;;
12745;SDS011;6437;53.686;10.030;2023-04-19T03:06:34;5.90;;;1.30;;
12745;SDS011;6437;53.686;10.030;2023-04-19T03:08:36;10.30;;;2.55;;
12745;SDS011;6437;53.686;10.030;2023-04-19T03:10:38;9.68;;;1.25;;
12745;SDS011;6437;53.686;10.030;2023-04-19T03:12:40;7.88;;;1.17;;
12745;SDS011;6437;53.686;10.030;2023-04-19T03:14:41;5.80;;;1.45;;
12745;SDS011;6437;53.686;10.030;2023-04-19T03:16:45;8.65;;;1.73;;
12745;SDS011;6437;53.686;10.030;2023-04-19T03:18:46;6.20;;;1.75;;
12745;SDS011;6437;53.686;10.030;2023-04-19T03:20:48;6.03;;;1.85;;
12745;SDS011;6437;53.686;10.030;2023-04-19T03:22:50;11.23;;;1.65;;
12745;SDS011;6437;53.686;10.030;2023-04-19T03:24:52;8.13;;;1.20;;
12745;SDS011;6437;53.686;10.030;2023-04-19T03:26:53;6.82;;;1.55;;
12745;SDS011;6437;53.686;10.030;2023-04-19T03:28:55;4.70;;;1.55;;
12745;SDS011;6437;53.686;10.030;2023-04-19T03:30:57;5.93;;;1.42;;
12745;SDS011;6437;53.686;10.030;2023-04-19T03:33:01;6.30;;;1.80;;
12745;SDS011;6437;53.686;10.030;2023-04-19T03:35:03;10.00;;;1.38;;
12745;SDS011;6437;53.686;10.030;2023-04-19T03:37:05;6.45;;;1.48;;
12745;SDS011;6437;53.686;10.030;2023-04-19T03:39:07;6.63;;;1.52;;
12745;SDS011;6437;53.686;10.030;2023-04-19T03:41:16;9.48;;;2.25;;
12745;SDS011;6437;53.686;10.030;2023-04-19T03:43:21;7.67;;;1.80;;
12745;SDS011;6437;53.686;10.030;2023-04-19T03:45:23;6.07;;;1.17;;
12745;SDS011;6437;53.686;10.030;2023-04-19T03:47:26;3.38;;;0.82;;
12745;SDS011;6437;53.686;10.030;2023-04-19T03:49:29;6.30;;;1.15;;
12745;SDS011;6437;53.686;10.030;2023-04-19T03:51:31;3.05;;;0.95;;
12745;SDS011;6437;53.686;10.030;2023-04-19T03:53:32;6.88;;;1.63;;
12745;SDS011;6437;53.686;10.030;2023-04-19T03:55:34;5.57;;;1.60;;
12745;SDS011;6437;53.686;10.030;2023-04-19T03:57:37;7.05;;;1.33;;
12745;SDS011;6437;53.686;10.030;2023-04-19T03:59:39;4.57;;;1.27;;
12745;SDS011;6437;53.686;10.030;2023-04-19T04:01:40;8.20;;;1.80;;
12745;SDS011;6437;53.686;10.030;2023-04-19T04:03:42;5.28;;;1.13;;
12745;SDS011;6437;53.686;10.030;2023-04-19T04:05:45;3.33;;;0.95;;
12745;SDS011;6437;53.686;10.030;2023-04-19T04:07:47;7.22;;;1.45;;
12745;SDS011;6437;53.686;10.030;2023-04-19T04:09:49;8.05;;;2.85;;
12745;SDS011;6437;53.686;10.030;2023-04-19T04:11:51;4.55;;;1.02;;
12745;SDS011;6437;53.686;10.030;2023-04-19T04:13:53;8.93;;;1.77;;
12745;SDS011;6437;53.686;10.030;2023-04-19T04:15:55;7.22;;;1.23;;
12745;SDS011;6437;53.686;10.030;2023-04-19T04:17:57;7.13;;;1.67;;
12745;SDS011;6437;53.686;10.030;2023-04-19T04:19:59;6.38;;;1.13;;
12745;SDS011;6437;53.686;10.030;2023-04-19T04:22:02;6.55;;;1.20;;
12745;SDS011;6437;53.686;10.030;2023-04-19T04:24:05;4.95;;;0.88;;
12745;SDS011;6437;53.686;10.030;2023-04-19T04:26:08;7.82;;;1.13;;
12745;SDS011;6437;53.686;10.030;2023-04-19T04:28:12;8.30;;;1.08;;
12745;SDS011;6437;53.686;10.030;2023-04-19T04:32:16;5.15;;;1.48;;
12745;SDS011;6437;53.686;10.030;2023-04-19T04:34:22;4.50;;;1.10;;
12745;SDS011;6437;53.686;10.030;2023-04-19T04:36:24;4.07;;;0.90;;
12745;SDS011;6437;53.686;10.030;2023-04-19T04:38:30;9.98;;;1.83;;
12745;SDS011;6437;53.686;10.030;2023-04-19T04:40:32;8.93;;;1.33;;
12745;SDS011;6437;53.686;10.030;2023-04-19T04:42:34;5.15;;;1.38;;
12745;SDS011;6437;53.686;10.030;2023-04-19T04:44:36;8.38;;;0.80;;
12745;SDS011;6437;53.686;10.030;2023-04-19T04:48:40;8.48;;;0.90;;
12745;SDS011;6437;53.686;10.030;2023-04-19T04:50:42;2.90;;;0.77;;
12745;SDS011;6437;53.686;10.030;2023-04-19T04:52:44;7.70;;;1.30;;
12745;SDS011;6437;53.686;10.030;2023-04-19T04:54:47;4.30;;;1.05;;
12745;SDS011;6437;53.686;10.030;2023-04-19T04:56:49;7.22;;;0.95;;
12745;SDS011;6437;53.686;10.030;2023-04-19T04:58:51;3.55;;;1.00;;
12745;SDS011;6437;53.686;10.030;2023-04-19T05:00:52;5.03;;;0.80;;
12745;SDS011;6437;53.686;10.030;2023-04-19T05:02:54;4.32;;;1.27;;
12745;SDS011;6437;53.686;10.030;2023-04-19T05:04:56;3.42;;;1.13;;
12745;SDS011;6437;53.686;10.030;2023-04-19T05:06:58;9.20;;;1.23;;
12745;SDS011;6437;53.686;10.030;2023-04-19T05:09:00;3.22;;;0.88;;
12745;SDS011;6437;53.686;10.030;2023-04-19T05:11:03;1.27;;;0.60;;
12745;SDS011;6437;53.686;10.030;2023-04-19T05:13:05;8.48;;;0.50;;
12745;SDS011;6437;53.686;10.030;2023-04-19T05:15:07;4.18;;;0.68;;
12745;SDS011;6437;53.686;10.030;2023-04-19T05:17:10;3.60;;;0.77;;
12745;SDS011;6437;53.686;10.030;2023-04-19T05:19:12;3.22;;;0.60;;
12745;SDS011;6437;53.686;10.030;2023-04-19T05:21:14;8.07;;;0.60;;
12745;SDS011;6437;53.686;10.030;2023-04-19T05:23:16;6.47;;;0.77;;
12745;SDS011;6437;53.686;10.030;2023-04-19T05:25:18;7.95;;;1.20;;
12745;SDS011;6437;53.686;10.030;2023-04-19T05:27:22;6.05;;;0.60;;
12745;SDS011;6437;53.686;10.030;2023-04-19T05:29:25;9.98;;;0.85;;
12745;SDS011;6437;53.686;10.030;2023-04-19T05:31:29;3.10;;;0.95;;
12745;SDS011;6437;53.686;10.030;2023-04-19T05:33:32;3.70;;;0.98;;
12745;SDS011;6437;53.686;10.030;2023-04-19T05:35:33;7.00;;;0.60;;
12745;SDS011;6437;53.686;10.030;2023-04-19T05:37:35;2.60;;;0.45;;
12745;SDS011;6437;53.686;10.030;2023-04-19T05:39:38;3.50;;;0.60;;
12745;SDS011;6437;53.686;10.030;2023-04-19T05:41:44;1.08;;;0.43;;
12745;SDS011;6437;53.686;10.030;2023-04-19T05:43:48;2.95;;;0.77;;
12745;SDS011;6437;53.686;10.030;2023-04-19T05:45:49;4.88;;;0.35;;
12745;SDS011;6437;53.686;10.030;2023-04-19T05:47:51;6.53;;;1.33;;
12745;SDS011;6437;53.686;10.030;2023-04-19T05:49:53;5.85;;;0.80;;
12745;SDS011;6437;53.686;10.030;2023-04-19T05:51:55;3.70;;;0.38;;
12745;SDS011;6437;53.686;10.030;2023-04-19T05:53:56;1.00;;;0.30;;
12745;SDS011;6437;53.686;10.030;2023-04-19T05:56:00;2.17;;;0.50;;
12745;SDS011;6437;53.686;10.030;2023-04-19T05:58:01;3.00;;;0.60;;
12745;SDS011;6437;53.686;10.030;2023-04-19T06:00:05;2.15;;;0.45;;
12745;SDS011;6437;53.686;10.030;2023-04-19T06:02:08;3.45;;;0.60;;
12745;SDS011;6437;53.686;10.030;2023-04-19T06:04:10;0.88;;;0.43;;
12745;SDS011;6437;53.686;10.030;2023-04-19T06:06:12;1.52;;;0.40;;
12745;SDS011;6437;53.686;10.030;2023-04-19T06:08:14;1.55;;;0.43;;
12745;SDS011;6437;53.686;10.030;2023-04-19T06:10:16;7.63;;;0.80;;
12745;SDS011;6437;53.686;10.030;2023-04-19T06:12:18;3.28;;;0.85;;
12745;SDS011;6437;53.686;10.030;2023-04-19T06:14:22;1.42;;;0.40;;
12745;SDS011;6437;53.686;10.030;2023-04-19T06:16:25;2.90;;;0.47;;
12745;SDS011;6437;53.686;10.030;2023-04-19T06:18:27;1.13;;;0.40;;
12745;SDS011;6437;53.686;10.030;2023-04-19T06:20:29;5.28;;;1.15;;
12745;SDS011;6437;53.686;10.030;2023-04-19T06:22:31;4.30;;;0.80;;
12745;SDS011;6437;53.686;10.030;2023-04-19T06:24:32;7.03;;;0.70;;
12745;SDS011;6437;53.686;10.030;2023-04-19T06:26:34;7.22;;;0.68;;
12745;SDS011;6437;53.686;10.030;2023-04-19T06:28:36;3.67;;;1.10;;
12745;SDS011;6437;53.686;10.030;2023-04-19T06:30:38;3.33;;;0.88;;
12745;SDS011;6437;53.686;10.030;2023-04-19T06:32:41;1.27;;;0.63;;
12745;SDS011;6437;53.686;10.030;2023-04-19T06:34:43;2.80;;;0.45;;
12745;SDS011;6437;53.686;10.030;2023-04-19T06:36:44;1.35;;;0.55;;
12745;SDS011;6437;53.686;10.030;2023-04-19T06:38:46;1.75;;;0.43;;
12745;SDS011;6437;53.686;10.030;2023-04-19T06:40:49;4.07;;;0.50;;
12745;SDS011;6437;53.686;10.030;2023-04-19T06:42:51;5.43;;;0.50;;
12745;SDS011;6437;53.686;10.030;2023-04-19T06:44:53;1.23;;;0.52;;
12745;SDS011;6437;53.686;10.030;2023-04-19T06:46:56;1.63;;;0.40;;
12745;SDS011;6437;53.686;10.030;2023-04-19T06:48:59;10.32;;;0.50;;
12745;SDS011;6437;53.686;10.030;2023-04-19T06:51:01;3.47;;;0.57;;
12745;SDS011;6437;53.686;10.030;2023-04-19T06:53:03;3.53;;;0.80;;
12745;SDS011;6437;53.686;10.030;2023-04-19T06:57:07;0.75;;;0.35;;
12745;SDS011;6437;53.686;10.030;2023-04-19T06:59:09;6.68;;;0.40;;
12745;SDS011;6437;53.686;10.030;2023-04-19T07:03:13;1.80;;;0.47;;
12745;SDS011;6437;53.686;10.030;2023-04-19T07:05:16;0.55;;;0.30;;
12745;SDS011;6437;53.686;10.030;2023-04-19T07:07:18;3.95;;;0.55;;
12745;SDS011;6437;53.686;10.030;2023-04-19T07:09:20;4.93;;;0.52;;
12745;SDS011;6437;53.686;10.030;2023-04-19T07:11:23;1.20;;;0.40;;
12745;SDS011;6437;53.686;10.030;2023-04-19T07:13:25;3.55;;;0.45;;
12745;SDS011;6437;53.686;10.030;2023-04-19T07:15:27;1.73;;;0.40;;
12745;SDS011;6437;53.686;10.030;2023-04-19T07:17:29;2.50;;;0.30;;
12745;SDS011;6437;53.686;10.030;2023-04-19T07:19:31;3.75;;;0.50;;
12745;SDS011;6437;53.686;10.030;2023-04-19T07:21:36;1.05;;;0.35;;
12745;SDS011;6437;53.686;10.030;2023-04-19T07:23:38;4.22;;;0.30;;
12745;SDS011;6437;53.686;10.030;2023-04-19T07:27:42;3.95;;;0.43;;
12745;SDS011;6437;53.686;10.030;2023-04-19T07:29:44;15.93;;;0.75;;
12745;SDS011;6437;53.686;10.030;2023-04-19T07:31:46;5.07;;;0.40;;
12745;SDS011;6437;53.686;10.030;2023-04-19T07:33:48;3.55;;;1.58;;
12745;SDS011;6437;53.686;10.030;2023-04-19T07:35:50;11.02;;;0.45;;
12745;SDS011;6437;53.686;10.030;2023-04-19T07:37:53;2.13;;;0.55;;
12745;SDS011;6437;53.686;10.030;2023-04-19T07:39:54;3.50;;;0.57;;
12745;SDS011;6437;53.686;10.030;2023-04-19T07:41:56;28.92;;;1.10;;
12745;SDS011;6437;53.686;10.030;2023-04-19T07:43:58;4.75;;;0.40;;
12745;SDS011;6437;53.686;10.030;2023-04-19T07:46:00;2.55;;;0.30;;
12745;SDS011;6437;53.686;10.030;2023-04-19T07:48:02;7.35;;;0.40;;
12745;SDS011;6437;53.686;10.030;2023-04-19T07:50:04;1.67;;;0.35;;
12745;SDS011;6437;53.686;10.030;2023-04-19T07:52:07;4.78;;;0.38;;
12745;SDS011;6437;53.686;10.030;2023-04-19T07:54:10;10.48;;;0.70;;
12745;SDS011;6437;53.686;10.030;2023-04-19T07:56:12;1.80;;;0.40;;
12745;SDS011;6437;53.686;10.030;2023-04-19T08:00:16;4.10;;;0.52;;
12745;SDS011;6437;53.686;10.030;2023-04-19T08:02:20;1.40;;;0.43;;
12745;SDS011;6437;53.686;10.030;2023-04-19T08:04:23;0.57;;;0.30;;
12745;SDS011;6437;53.686;10.030;2023-04-19T08:06:25;2.28;;;0.30;;
12745;SDS011;6437;53.686;10.030;2023-04-19T08:08:28;4.90;;;0.43;;
12745;SDS011;6437;53.686;10.030;2023-04-19T08:10:32;3.97;;;0.50;;
12745;SDS011;6437;53.686;10.030;2023-04-19T08:12:34;6.97;;;0.30;;
12745;SDS011;6437;53.686;10.030;2023-04-19T08:16:39;1.85;;;0.30;;
12745;SDS011;6437;53.686;10.030;2023-04-19T08:18:41;1.52;;;0.30;;
12745;SDS011;6437;53.686;10.030;2023-04-19T08:20:45;2.40;;;0.50;;
12745;SDS011;6437;53.686;10.030;2023-04-19T08:22:47;6.93;;;0.80;;
12745;SDS011;6437;53.686;10.030;2023-04-19T08:24:49;2.28;;;0.50;;
12745;SDS011;6437;53.686;10.030;2023-04-19T08:26:52;2.92;;;0.50;;
12745;SDS011;6437;53.686;10.030;2023-04-19T08:28:55;6.75;;;0.68;;
12745;SDS011;6437;53.686;10.030;2023-04-19T08:30:57;0.73;;;0.40;;
12745;SDS011;6437;53.686;10.030;2023-04-19T08:32:59;3.13;;;0.40;;
12745;SDS011;6437;53.686;10.030;2023-04-19T08:35:01;12.90;;;0.63;;
12745;SDS011;6437;53.686;10.030;2023-04-19T08:37:03;1.55;;;0.45;;
12745;SDS011;6437;53.686;10.030;2023-04-19T08:39:06;6.22;;;0.40;;
12745;SDS011;6437;53.686;10.030;2023-04-19T08:41:09;0.50;;;0.30;;
12745;SDS011;6437;53.686;10.030;2023-04-19T08:43:13;3.13;;;0.57;;
12745;SDS011;6437;53.686;10.030;2023-04-19T08:45:17;2.05;;;0.50;;
12745;SDS011;6437;53.686;10.030;2023-04-19T08:47:23;0.98;;;0.50;;
12745;SDS011;6437;53.686;10.030;2023-04-19T08:49:26;6.20;;;0.50;;
12745;SDS011;6437;53.686;10.030;2023-04-19T08:51:28;4.75;;;0.77;;
12745;SDS011;6437;53.686;10.030;2023-04-19T08:53:32;5.93;;;0.43;;
12745;SDS011;6437;53.686;10.030;2023-04-19T08:55:35;6.93;;;0.40;;
12745;SDS011;6437;53.686;10.030;2023-04-19T08:57:38;6.35;;;0.40;;
12745;SDS011;6437;53.686;10.030;2023-04-19T08:59:41;6.97;;;0.82;;
12745;SDS011;6437;53.686;10.030;2023-04-19T09:01:44;6.53;;;0.43;;
12745;SDS011;6437;53.686;10.030;2023-04-19T09:03:46;0.93;;;0.40;;
12745;SDS011;6437;53.686;10.030;2023-04-19T09:07:50;2.42;;;0.50;;
12745;SDS011;6437;53.686;10.030;2023-04-19T09:10:05;0.68;;;0.45;;
12745;SDS011;6437;53.686;10.030;2023-04-19T09:12:15;3.45;;;0.75;;
12745;SDS011;6437;53.686;10.030;2023-04-19T09:14:18;5.35;;;0.50;;
12745;SDS011;6437;53.686;10.030;2023-04-19T09:16:24;4.03;;;0.40;;
12745;SDS011;6437;53.686;10.030;2023-04-19T09:18:25;1.13;;;0.60;;
12745;SDS011;6437;53.686;10.030;2023-04-19T09:22:36;6.78;;;0.40;;
12745;SDS011;6437;53.686;10.030;2023-04-19T09:24:40;5.07;;;0.70;;
12745;SDS011;6437;53.686;10.030;2023-04-19T09:26:43;4.70;;;0.73;;
12745;SDS011;6437;53.686;10.030;2023-04-19T09:30:57;2.22;;;0.60;;
12745;SDS011;6437;53.686;10.030;2023-04-19T09:33:00;6.05;;;0.47;;
12745;SDS011;6437;53.686;10.030;2023-04-19T09:35:02;9.80;;;0.82;;
12745;SDS011;6437;53.686;10.030;2023-04-19T09:37:10;3.45;;;1.00;;
12745;SDS011;6437;53.686;10.030;2023-04-19T09:39:12;2.10;;;0.82;;
12745;SDS011;6437;53.686;10.030;2023-04-19T09:41:14;4.97;;;1.27;;
12745;SDS011;6437;53.686;10.030;2023-04-19T09:43:22;1.52;;;0.75;;
12745;SDS011;6437;53.686;10.030;2023-04-19T09:45:25;3.20;;;0.70;;
12745;SDS011;6437;53.686;10.030;2023-04-19T09:47:28;4.93;;;0.60;;
12745;SDS011;6437;53.686;10.030;2023-04-19T09:49:31;8.38;;;1.05;;
12745;SDS011;6437;53.686;10.030;2023-04-19T09:51:38;6.65;;;0.90;;
12745;SDS011;6437;53.686;10.030;2023-04-19T09:53:40;6.10;;;0.82;;
12745;SDS011;6437;53.686;10.030;2023-04-19T09:55:44;5.80;;;0.82;;
12745;SDS011;6437;53.686;10.030;2023-04-19T09:57:47;13.40;;;0.98;;
12745;SDS011;6437;53.686;10.030;2023-04-19T09:59:48;7.03;;;0.90;;
12745;SDS011;6437;53.686;10.030;2023-04-19T10:01:51;1.77;;;0.75;;
12745;SDS011;6437;53.686;10.030;2023-04-19T10:03:56;2.88;;;0.95;;
12745;SDS011;6437;53.686;10.030;2023-04-19T10:06:00;6.72;;;0.63;;
12745;SDS011;6437;53.686;10.030;2023-04-19T10:08:03;2.60;;;0.80;;
12745;SDS011;6437;53.686;10.030;2023-04-19T10:10:07;4.65;;;1.02;;
12745;SDS011;6437;53.686;10.030;2023-04-19T10:12:10;4.97;;;0.82;;
12745;SDS011;6437;53.686;10.030;2023-04-19T10:14:12;2.55;;;0.95;;
12745;SDS011;6437;53.686;10.030;2023-04-19T10:16:15;6.28;;;0.90;;
12745;SDS011;6437;53.686;10.030;2023-04-19T10:18:17;4.43;;;1.27;;
12745;SDS011;6437;53.686;10.030;2023-04-19T10:20:20;3.40;;;0.68;;
12745;SDS011;6437;53.686;10.030;2023-04-19T10:22:26;4.93;;;0.80;;
12745;SDS011;6437;53.686;10.030;2023-04-19T10:24:28;4.07;;;0.80;;
12745;SDS011;6437;53.686;10.030;2023-04-19T10:26:30;7.97;;;1.10;;
12745;SDS011;6437;53.686;10.030;2023-04-19T10:29:06;3.53;;;0.98;;
12745;SDS011;6437;53.686;10.030;2023-04-19T10:31:10;4.78;;;0.77;;
12745;SDS011;6437;53.686;10.030;2023-04-19T10:33:13;5.47;;;0.65;;
12745;SDS011;6437;53.686;10.030;2023-04-19T10:37:29;6.40;;;0.93;;
12745;SDS011;6437;53.686;10.030;2023-04-19T10:39:38;13.02;;;1.08;;
12745;SDS011;6437;53.686;10.030;2023-04-19T10:41:55;9.00;;;1.25;;
12745;SDS011;6437;53.686;10.030;2023-04-19T10:44:08;8.63;;;1.40;;
12745;SDS011;6437;53.686;10.030;2023-04-19T10:46:12;4.35;;;0.80;;
12745;SDS011;6437;53.686;10.030;2023-04-19T10:48:32;5.30;;;1.27;;
12745;SDS011;6437;53.686;10.030;2023-04-19T10:55:47;4.13;;;0.80;;
12745;SDS011;6437;53.686;10.030;2023-04-19T10:57:59;4.32;;;1.05;;
12745;SDS011;6437;53.686;10.030;2023-04-19T11:00:18;7.25;;;1.00;;
12745;SDS011;6437;53.686;10.030;2023-04-19T11:02:27;5.43;;;0.93;;
12745;SDS011;6437;53.686;10.030;2023-04-19T11:07:00;6.38;;;1.00;;
12745;SDS011;6437;53.686;10.030;2023-04-19T11:09:03;16.25;;;1.52;;
12745;SDS011;6437;53.686;10.030;2023-04-19T11:11:07;7.47;;;1.52;;
12745;SDS011;6437;53.686;10.030;2023-04-19T11:13:11;7.65;;;0.93;;
12745;SDS011;6437;53.686;10.030;2023-04-19T11:15:13;4.85;;;1.20;;
12745;SDS011;6437;53.686;10.030;2023-04-19T11:17:16;5.20;;;1.60;;
12745;SDS011;6437;53.686;10.030;2023-04-19T11:19:18;3.50;;;0.82;;
12745;SDS011;6437;53.686;10.030;2023-04-19T11:21:20;3.63;;;0.60;;
12745;SDS011;6437;53.686;10.030;2023-04-19T11:23:22;6.85;;;1.38;;
12745;SDS011;6437;53.686;10.030;2023-04-19T11:25:24;5.97;;;1.08;;
12745;SDS011;6437;53.686;10.030;2023-04-19T11:27:28;2.72;;;1.00;;
12745;SDS011;6437;53.686;10.030;2023-04-19T11:29:30;5.25;;;1.05;;
12745;SDS011;6437;53.686;10.030;2023-04-19T11:31:31;2.13;;;0.95;;
12745;SDS011;6437;53.686;10.030;2023-04-19T11:33:33;2.25;;;1.00;;
12745;SDS011;6437;53.686;10.030;2023-04-19T11:35:36;2.42;;;1.00;;
12745;SDS011;6437;53.686;10.030;2023-04-19T11:37:38;6.05;;;0.95;;
12745;SDS011;6437;53.686;10.030;2023-04-19T11:39:43;14.30;;;1.00;;
12745;SDS011;6437;53.686;10.030;2023-04-19T11:41:46;2.58;;;0.98;;
12745;SDS011;6437;53.686;10.030;2023-04-19T11:43:49;5.82;;;1.30;;
12745;SDS011;6437;53.686;10.030;2023-04-19T11:45:51;6.55;;;0.98;;
12745;SDS011;6437;53.686;10.030;2023-04-19T11:47:55;2.72;;;1.48;;
12745;SDS011;6437;53.686;10.030;2023-04-19T11:50:28;4.15;;;0.93;;
12745;SDS011;6437;53.686;10.030;2023-04-19T11:52:35;3.40;;;0.70;;
12745;SDS011;6437;53.686;10.030;2023-04-19T11:54:37;7.47;;;1.27;;
12745;SDS011;6437;53.686;10.030;2023-04-19T11:58:59;8.57;;;1.20;;
12745;SDS011;6437;53.686;10.030;2023-04-19T12:01:02;4.70;;;1.48;;
12745;SDS011;6437;53.686;10.030;2023-04-19T12:03:05;4.53;;;1.13;;
12745;SDS011;6437;53.686;10.030;2023-04-19T12:05:08;9.45;;;1.55;;
12745;SDS011;6437;53.686;10.030;2023-04-19T12:07:10;10.63;;;1.65;;
12745;SDS011;6437;53.686;10.030;2023-04-19T12:09:12;5.70;;;1.67;;
12745;SDS011;6437;53.686;10.030;2023-04-19T12:11:21;2.92;;;1.27;;
12745;SDS011;6437;53.686;10.030;2023-04-19T12:13:25;8.40;;;1.10;;
12745;SDS011;6437;53.686;10.030;2023-04-19T12:15:41;5.28;;;0.90;;
12745;SDS011;6437;53.686;10.030;2023-04-19T12:17:56;9.50;;;0.65;;
12745;SDS011;6437;53.686;10.030;2023-04-19T12:19:58;3.10;;;0.60;;
12745;SDS011;6437;53.686;10.030;2023-04-19T12:22:06;6.40;;;1.27;;
12745;SDS011;6437;53.686;10.030;2023-04-19T12:24:08;14.35;;;0.90;;
12745;SDS011;6437;53.686;10.030;2023-04-19T12:26:11;7.22;;;0.60;;
12745;SDS011;6437;53.686;10.030;2023-04-19T12:28:13;5.40;;;0.73;;
12745;SDS011;6437;53.686;10.030;2023-04-19T12:30:15;5.32;;;1.13;;
12745;SDS011;6437;53.686;10.030;2023-04-19T12:32:19;5.25;;;1.23;;
12745;SDS011;6437;53.686;10.030;2023-04-19T12:34:20;6.72;;;0.80;;
12745;SDS011;6437;53.686;10.030;2023-04-19T12:36:22;3.35;;;1.25;;
12745;SDS011;6437;53.686;10.030;2023-04-19T12:40:26;14.88;;;1.20;;
12745;SDS011;6437;53.686;10.030;2023-04-19T12:42:29;9.32;;;1.40;;
12745;SDS011;6437;53.686;10.030;2023-04-19T12:44:31;5.28;;;1.23;;
12745;SDS011;6437;53.686;10.030;2023-04-19T12:46:33;7.35;;;1.20;;
12745;SDS011;6437;53.686;10.030;2023-04-19T12:48:37;14.57;;;1.15;;
12745;SDS011;6437;53.686;10.030;2023-04-19T12:50:39;6.18;;;1.25;;
12745;SDS011;6437;53.686;10.030;2023-04-19T12:52:41;3.90;;;0.90;;
12745;SDS011;6437;53.686;10.030;2023-04-19T12:54:44;10.18;;;0.98;;
12745;SDS011;6437;53.686;10.030;2023-04-19T12:56:46;6.30;;;1.00;;
12745;SDS011;6437;53.686;10.030;2023-04-19T12:58:48;2.47;;;0.98;;
12745;SDS011;6437;53.686;10.030;2023-04-19T13:00:50;9.10;;;1.10;;